createdAt,value
2018-01-26T00:01:16.712Z,4.84
2018-01-26T00:03:45.750Z,4.64
2018-01-26T00:06:14.780Z,4.24
2018-01-26T00:08:43.808Z,4.13
2018-01-26T00:11:12.843Z,3.98
2018-01-26T00:13:41.878Z,3.89
2018-01-26T00:16:10.940Z,3.76
2018-01-26T00:18:39.979Z,3.70
2018-01-26T00:21:08.990Z,3.62
2018-01-26T00:23:38.028Z,3.49
2018-01-26T00:26:07.065Z,3.40
2018-01-26T00:28:36.105Z,3.30
2018-01-26T00:33:41.092Z,3.65
2018-01-26T00:36:10.120Z,3.90
2018-01-26T00:38:39.157Z,4.10
2018-01-26T00:43:43.393Z,4.36
2018-01-26T00:46:12.419Z,4.37
2018-01-26T00:48:41.433Z,4.41
2018-01-26T00:51:10.482Z,4.39
2018-01-26T00:56:14.752Z,4.43
2018-01-26T00:58:43.785Z,4.38
2018-01-26T01:01:12.808Z,4.33
2018-01-26T01:03:41.842Z,4.27
2018-01-26T01:06:10.877Z,4.32
2018-01-26T01:11:16.092Z,4.24
2018-01-26T01:13:45.136Z,4.27
2018-01-26T01:16:14.213Z,4.16
2018-01-26T01:18:43.242Z,4.28
2018-01-26T01:21:12.269Z,4.18
2018-01-26T01:23:41.293Z,4.12
2018-01-26T01:26:10.409Z,4.15
2018-01-26T01:28:39.449Z,4.06
2018-01-26T01:31:08.472Z,4.02
2018-01-26T01:33:37.509Z,4.02
2018-01-26T01:36:06.565Z,3.95
2018-01-26T01:38:35.611Z,3.83
2018-01-26T01:41:04.657Z,3.77
2018-01-26T01:46:08.921Z,4.06
2018-01-26T01:48:37.953Z,4.16
2018-01-26T01:51:06.980Z,4.13
2018-01-26T01:53:36.006Z,4.14
2018-01-26T01:56:05.033Z,4.23
2018-01-26T01:58:34.122Z,4.23
2018-01-26T02:01:07.059Z,4.10
2018-01-26T02:03:36.079Z,4.08
2018-01-26T02:06:05.109Z,3.81
2018-01-26T02:08:34.144Z,3.50
2018-01-26T02:11:03.177Z,3.26
2018-01-26T02:13:32.226Z,3.19
2018-01-26T02:16:01.299Z,3.25
2018-01-26T02:18:30.328Z,3.28
2018-01-26T02:20:59.368Z,3.43
2018-01-26T02:23:28.393Z,3.39
2018-01-26T02:25:57.460Z,3.38
2018-01-26T02:28:26.510Z,3.44
2018-01-26T02:30:59.171Z,3.37
2018-01-26T02:33:28.185Z,3.25
2018-01-26T02:35:57.233Z,3.36
2018-01-26T02:38:26.258Z,3.49
2018-01-26T02:40:55.290Z,3.53
2018-01-26T02:43:24.368Z,3.56
2018-01-26T02:45:53.393Z,3.60
2018-01-26T02:48:22.444Z,3.58
2018-01-26T02:50:51.489Z,3.57
2018-01-26T02:53:20.599Z,3.60
2018-01-26T02:55:49.633Z,3.66
2018-01-26T02:58:26.005Z,3.72
2018-01-26T03:00:55.027Z,3.71
2018-01-26T03:03:24.052Z,3.73
2018-01-26T03:05:53.268Z,3.70
2018-01-26T03:08:22.296Z,3.63
2018-01-26T03:10:51.360Z,3.79
2018-01-26T03:13:24.616Z,3.78
2018-01-26T03:15:57.604Z,3.80
2018-01-26T03:18:26.620Z,3.74
2018-01-26T03:20:55.649Z,3.69
2018-01-26T03:23:24.681Z,3.55
2018-01-26T03:25:53.723Z,3.49
2018-01-26T03:28:22.753Z,3.20
2018-01-26T03:30:51.769Z,2.99
2018-01-26T03:33:20.803Z,2.95
2018-01-26T03:35:49.857Z,2.76
2018-01-26T03:38:18.881Z,2.61
2018-01-26T03:40:47.906Z,2.50
2018-01-26T03:43:16.941Z,2.37
2018-01-26T03:45:46.757Z,2.42
2018-01-26T03:48:18.209Z,2.36
2018-01-26T03:50:47.214Z,2.46
2018-01-26T03:53:16.247Z,2.39
2018-01-26T03:55:45.318Z,2.29
2018-01-26T03:58:14.335Z,2.32
2018-01-26T04:03:18.574Z,2.28
2018-01-26T04:05:47.616Z,2.11
2018-01-26T04:08:16.653Z,2.13
2018-01-26T04:13:20.904Z,2.08
2018-01-26T04:15:49.934Z,2.01
2018-01-26T04:18:18.965Z,1.77
2018-01-26T04:23:43.813Z,1.53
2018-01-26T04:26:12.848Z,1.33
2018-01-26T04:28:44.103Z,1.27
2018-01-26T04:31:14.016Z,1.16
2018-01-26T04:33:43.538Z,1.16
2018-01-26T04:36:12.569Z,1.14
2018-01-26T04:41:16.825Z,1.12
2018-01-26T04:43:45.865Z,1.07
2018-01-26T04:46:14.908Z,0.89
2018-01-26T04:48:43.948Z,0.97
2018-01-26T04:51:12.973Z,1.06
2018-01-26T04:53:42.064Z,1.05
2018-01-26T04:56:11.109Z,1.15
2018-01-26T04:58:40.143Z,1.26
2018-01-26T05:01:09.175Z,1.18
2018-01-26T05:03:38.201Z,1.21
2018-01-26T05:06:07.232Z,1.08
2018-01-26T05:08:36.282Z,1.12
2018-01-26T05:11:05.385Z,1.15
2018-01-26T05:13:34.396Z,1.13
2018-01-26T05:18:38.642Z,1.04
2018-01-26T05:21:07.677Z,0.85
2018-01-26T05:23:36.762Z,0.87
2018-01-26T05:26:05.869Z,0.72
2018-01-26T05:28:34.888Z,0.76
2018-01-26T05:31:03.933Z,0.63
2018-01-26T05:33:32.963Z,0.74
2018-01-26T05:36:02.012Z,0.65
2018-01-26T05:38:31.036Z,0.68
2018-01-26T05:41:00.073Z,0.56
2018-01-26T05:43:29.127Z,0.58
2018-01-26T05:45:58.213Z,0.63
2018-01-26T05:48:27.264Z,0.46
2018-01-26T05:50:56.299Z,0.48
2018-01-26T05:53:25.353Z,0.37
2018-01-26T05:55:54.406Z,0.50
2018-01-26T05:58:23.445Z,0.42
2018-01-26T06:03:27.680Z,0.45
2018-01-26T06:08:35.352Z,0.44
2018-01-26T06:11:04.390Z,0.41
2018-01-26T06:13:33.425Z,0.52
2018-01-26T06:16:02.465Z,0.58
2018-01-26T06:18:31.520Z,0.62
2018-01-26T06:21:00.570Z,0.53
2018-01-26T06:23:29.607Z,0.58
2018-01-26T06:25:58.640Z,0.59
2018-01-26T06:28:27.673Z,0.41
2018-01-26T06:30:56.716Z,0.43
2018-01-26T06:33:25.757Z,0.29
2018-01-26T06:35:54.808Z,0.33
2018-01-26T06:38:23.838Z,0.38
2018-01-26T06:40:52.889Z,0.25
2018-01-26T06:43:21.995Z,0.37
2018-01-26T06:45:51.020Z,0.41
2018-01-26T06:53:31.474Z,0.52
2018-01-26T06:56:00.543Z,0.52
2018-01-26T06:58:29.588Z,0.63
2018-01-26T07:03:33.917Z,0.56
2018-01-26T07:06:02.961Z,0.64
2018-01-26T07:08:32.000Z,0.54
2018-01-26T07:13:36.268Z,0.72
2018-01-26T07:18:40.568Z,0.96
2018-01-26T07:21:09.652Z,0.98
2018-01-26T07:23:38.701Z,1.12
2018-01-26T07:26:07.741Z,1.16
2018-01-26T07:28:36.776Z,1.34
2018-01-26T07:31:05.844Z,1.29
2018-01-26T07:33:34.877Z,1.39
2018-01-26T07:36:03.997Z,1.33
2018-01-26T07:38:33.985Z,1.51
2018-01-26T07:41:03.072Z,1.72
2018-01-26T07:43:32.124Z,1.67
2018-01-26T07:46:03.058Z,1.84
2018-01-26T07:48:32.087Z,2.05
2018-01-26T07:51:01.146Z,2.05
2018-01-26T07:53:30.181Z,2.27
2018-01-26T07:55:59.217Z,2.32
2018-01-26T07:58:28.265Z,2.55
2018-01-26T08:00:57.310Z,2.73
2018-01-26T08:03:26.361Z,2.89
2018-01-26T08:05:55.412Z,2.85
2018-01-26T08:08:24.450Z,2.66
2018-01-26T08:10:53.492Z,2.69
2018-01-26T08:13:22.524Z,2.85
2018-01-26T08:15:52.374Z,2.98
2018-01-26T08:18:21.413Z,3.27
2018-01-26T08:20:50.440Z,3.58
2018-01-26T08:23:19.473Z,3.71
2018-01-26T08:25:49.927Z,4.02
2018-01-26T08:28:28.379Z,4.26
2018-01-26T08:30:58.583Z,4.30
2018-01-26T08:33:27.673Z,4.25
2018-01-26T08:36:01.654Z,4.45
2018-01-26T08:38:30.652Z,4.67
2018-01-26T08:41:00.489Z,4.99
2018-01-26T08:43:29.523Z,5.45
2018-01-26T08:45:59.561Z,5.66
2018-01-26T08:48:28.649Z,5.84
2018-01-26T08:50:58.371Z,5.91
2018-01-26T08:53:27.445Z,6.04
2018-01-26T08:55:58.053Z,6.25
2018-01-26T08:58:27.079Z,6.34
2018-01-26T09:00:56.093Z,6.32
2018-01-26T09:06:00.338Z,6.60
2018-01-26T09:11:08.039Z,6.75
2018-01-26T09:13:37.114Z,6.75
2018-01-26T09:16:06.092Z,6.80
2018-01-26T09:18:35.129Z,7.12
2018-01-26T09:21:07.735Z,7.34
2018-01-26T09:23:36.976Z,7.87
2018-01-26T09:26:06.001Z,8.30
2018-01-26T09:28:35.029Z,8.68
2018-01-26T09:31:04.057Z,9.25
2018-01-26T09:33:33.091Z,10.10
2018-01-26T09:36:02.160Z,10.71
2018-01-26T09:38:31.197Z,11.13
2018-01-26T09:43:35.453Z,11.97
2018-01-26T09:46:04.712Z,11.62
2018-01-26T09:48:33.827Z,11.44
2018-01-26T09:51:02.844Z,11.47
2018-01-26T09:53:31.878Z,11.27
2018-01-26T09:56:01.644Z,12.06
2018-01-26T09:58:30.649Z,12.65
2018-01-26T10:00:59.694Z,12.99
2018-01-26T10:03:28.730Z,12.89
2018-01-26T10:05:57.784Z,12.88
2018-01-26T10:08:26.806Z,13.09
2018-01-26T10:10:55.866Z,14.10
2018-01-26T10:16:00.235Z,15.79
2018-01-26T10:18:29.295Z,16.72
2018-01-26T10:20:58.318Z,17.49
2018-01-26T10:23:27.355Z,17.71
2018-01-26T10:25:56.406Z,17.01
2018-01-26T10:31:00.689Z,14.58
2018-01-26T10:33:29.743Z,14.10
2018-01-26T10:35:58.781Z,13.84
2018-01-26T10:41:03.175Z,14.59
2018-01-26T10:43:32.198Z,14.24
2018-01-26T10:46:01.357Z,14.29
2018-01-26T10:48:30.325Z,14.97
2018-01-26T10:51:00.333Z,16.11
2018-01-26T10:53:29.399Z,17.05
2018-01-26T10:55:58.570Z,17.07
2018-01-26T10:58:27.632Z,18.07
2018-01-26T11:03:31.922Z,18.80
2018-01-26T11:06:00.994Z,18.93
2018-01-26T11:08:30.038Z,17.95
2018-01-26T11:10:59.074Z,18.72
2018-01-26T11:13:28.116Z,20.60
2018-01-26T11:15:57.167Z,21.65
2018-01-26T11:18:26.213Z,23.11
2018-01-26T11:20:55.286Z,23.21
2018-01-26T11:23:24.363Z,23.60
2018-01-26T11:25:54.905Z,22.09
2018-01-26T11:28:23.954Z,21.08
2018-01-26T11:30:52.993Z,19.53
2018-01-26T11:33:22.038Z,19.56
2018-01-26T11:35:51.093Z,19.63
2018-01-26T11:38:20.268Z,20.59
2018-01-26T11:40:49.272Z,21.78
2018-01-26T11:43:18.354Z,22.14
2018-01-26T11:45:47.418Z,22.94
2018-01-26T11:48:16.468Z,23.51
2018-01-26T11:50:45.590Z,23.64
2018-01-26T11:53:14.613Z,25.42
2018-01-26T11:55:43.689Z,26.49
2018-01-26T11:58:12.712Z,27.35
2018-01-26T12:00:41.766Z,27.39
2018-01-26T12:03:10.826Z,25.95
2018-01-26T12:05:39.877Z,23.75
2018-01-26T12:08:08.950Z,20.83
2018-01-26T12:10:38.596Z,21.36
2018-01-26T12:13:07.650Z,23.81
2018-01-26T12:15:37.645Z,25.11
2018-01-26T12:18:06.706Z,25.28
2018-01-26T12:20:36.767Z,25.08
2018-01-26T12:23:05.833Z,24.77
2018-01-26T12:25:35.892Z,24.49
2018-01-26T12:30:40.236Z,24.51
2018-01-26T12:33:09.293Z,24.37
2018-01-26T12:35:38.640Z,23.82
2018-01-26T12:38:07.686Z,23.74
2018-01-26T12:40:37.541Z,23.31
2018-01-26T12:45:41.945Z,21.87
2018-01-26T12:48:10.982Z,21.19
2018-01-26T12:50:40.037Z,21.46
2018-01-26T12:55:44.378Z,20.66
2018-01-26T12:58:13.421Z,20.56
2018-01-26T13:00:42.465Z,19.99
2018-01-26T13:03:11.528Z,19.60
2018-01-26T13:05:46.059Z,20.54
2018-01-26T13:10:50.602Z,20.93
2018-01-26T13:13:19.653Z,21.48
2018-01-26T13:15:48.714Z,21.26
2018-01-26T13:18:17.756Z,21.67
2018-01-26T13:20:46.805Z,21.70
2018-01-26T13:23:15.854Z,23.05
2018-01-26T13:25:45.046Z,23.12
2018-01-26T13:28:15.032Z,23.79
2018-01-26T13:30:44.103Z,24.93
2018-01-26T13:35:48.357Z,26.45
2018-01-26T13:38:17.423Z,25.90
2018-01-26T13:40:46.459Z,25.94
2018-01-26T13:43:15.505Z,25.16
2018-01-26T13:45:44.568Z,24.40
2018-01-26T13:48:13.630Z,24.69
2018-01-26T13:50:42.702Z,25.52
2018-01-26T13:53:11.757Z,25.88
2018-01-26T13:55:40.840Z,27.35
2018-01-26T13:58:09.919Z,28.40
2018-01-26T14:00:38.985Z,28.37
2018-01-26T14:03:08.038Z,26.95
2018-01-26T14:05:37.994Z,26.15
2018-01-26T14:08:07.022Z,23.73
2018-01-26T14:10:36.901Z,22.99
2018-01-26T14:15:41.206Z,24.32
2018-01-26T14:18:10.262Z,24.73
2018-01-26T14:20:39.321Z,24.25
2018-01-26T14:23:08.382Z,25.56
2018-01-26T14:25:38.119Z,25.31
2018-01-26T14:28:07.203Z,25.17
2018-01-26T14:30:36.993Z,23.90
2018-01-26T14:33:06.051Z,21.79
2018-01-26T14:35:35.941Z,18.85
2018-01-26T14:38:05.022Z,16.28
2018-01-26T14:40:34.106Z,15.91
2018-01-26T14:43:03.145Z,14.91
2018-01-26T14:45:32.226Z,14.50
2018-01-26T14:50:37.460Z,13.35
2018-01-26T14:53:10.163Z,12.51
2018-01-26T14:55:44.259Z,11.97
2018-01-26T14:58:18.939Z,11.70
2018-01-26T15:00:51.266Z,11.41
2018-01-26T15:03:20.298Z,11.26
2018-01-26T15:05:49.353Z,11.27
2018-01-26T15:13:29.817Z,11.21
2018-01-26T15:18:36.038Z,10.91
2018-01-26T15:21:05.062Z,10.61
2018-01-26T15:23:34.115Z,10.32
2018-01-26T15:26:03.184Z,10.20
2018-01-26T15:28:32.246Z,9.93
2018-01-26T15:31:01.821Z,9.80
2018-01-26T15:33:30.854Z,9.69
2018-01-26T15:35:59.918Z,9.70
2018-01-26T15:38:28.952Z,9.46
2018-01-26T15:40:58.000Z,9.21
2018-01-26T15:43:27.033Z,8.98
2018-01-26T15:45:56.078Z,8.71
2018-01-26T15:51:00.339Z,8.36
2018-01-26T15:53:29.390Z,8.04
2018-01-26T15:55:58.437Z,7.78
2018-01-26T15:58:27.482Z,7.82
2018-01-26T16:00:56.532Z,7.60
2018-01-26T16:03:25.575Z,7.42
2018-01-26T16:05:54.623Z,7.28
2018-01-26T16:08:23.842Z,7.19
2018-01-26T16:10:52.883Z,7.08
2018-01-26T16:13:21.918Z,7.16
2018-01-26T16:16:04.621Z,6.98
2018-01-26T16:18:33.705Z,6.82
2018-01-26T16:21:03.642Z,6.67
2018-01-26T16:23:32.694Z,6.59
2018-01-26T16:26:01.762Z,6.53
2018-01-26T16:28:30.800Z,6.47
2018-01-26T16:30:59.846Z,6.57
2018-01-26T16:33:28.899Z,6.57
2018-01-26T16:35:57.961Z,6.59
2018-01-26T16:41:02.249Z,6.23
2018-01-26T16:43:31.315Z,5.98
2018-01-26T16:46:00.381Z,5.66
2018-01-26T16:48:35.385Z,5.62
2018-01-26T16:51:09.777Z,5.49
2018-01-26T16:53:39.061Z,5.36
2018-01-26T16:56:08.758Z,5.30
2018-01-26T16:58:37.844Z,5.17
2018-01-26T17:01:10.240Z,4.97
2018-01-26T17:03:39.376Z,4.81
2018-01-26T17:06:08.964Z,4.69
2018-01-26T17:08:37.996Z,4.61
2018-01-26T17:11:07.753Z,4.58
2018-01-26T17:13:41.379Z,4.60
2018-01-26T17:16:11.194Z,4.39
2018-01-26T17:18:40.234Z,4.27
2018-01-26T17:21:09.294Z,4.55
2018-01-26T17:31:24.086Z,4.18
2018-01-26T17:33:53.142Z,4.10
2018-01-26T17:36:26.379Z,3.85
2018-01-26T17:38:55.438Z,3.64
2018-01-26T17:41:25.551Z,3.51
2018-01-26T17:43:54.879Z,3.47
2018-01-26T17:48:59.999Z,3.51
2018-01-26T17:51:29.061Z,3.58
2018-01-26T17:53:58.120Z,3.59
2018-01-26T17:56:28.086Z,3.38
2018-01-26T17:58:57.172Z,3.24
2018-01-26T18:01:26.219Z,3.14
2018-01-26T18:03:55.255Z,3.24
2018-01-26T18:06:24.312Z,3.11
2018-01-26T18:08:53.351Z,3.13
2018-01-26T18:11:22.425Z,3.07
2018-01-26T18:15:54.015Z,3.03
2018-01-26T18:20:58.371Z,2.87
2018-01-26T18:23:27.665Z,2.76
2018-01-26T18:25:56.712Z,2.75
2018-01-26T18:28:25.865Z,2.86
2018-01-26T18:30:54.914Z,2.82
2018-01-26T18:33:24.004Z,2.73
2018-01-26T18:41:03.891Z,2.77
2018-01-26T18:46:08.584Z,2.81
2018-01-26T18:48:37.772Z,2.64
2018-01-26T18:51:08.902Z,2.54
2018-01-26T18:53:39.703Z,2.48
2018-01-26T18:56:08.952Z,2.50
2018-01-26T18:58:38.064Z,2.60
2018-01-26T19:01:07.797Z,2.52
2018-01-26T19:06:18.879Z,2.29
2018-01-26T19:08:51.941Z,2.30
2018-01-26T19:11:26.183Z,2.11
2018-01-26T19:13:59.109Z,2.17
2018-01-26T19:16:33.598Z,2.06
2018-01-26T19:19:06.792Z,2.11
2018-01-26T19:21:35.803Z,2.19
2018-01-26T19:24:05.639Z,2.03
2018-01-26T19:26:34.710Z,2.06
2018-01-26T19:29:03.781Z,2.01
2018-01-26T19:31:32.818Z,2.12
2018-01-26T19:34:01.869Z,2.15
2018-01-26T19:36:30.908Z,2.31
2018-01-26T19:39:00.062Z,2.33
2018-01-26T19:41:30.936Z,2.21
2018-01-26T19:43:59.973Z,2.24
2018-01-26T19:46:29.037Z,2.33
2018-01-26T19:48:58.074Z,2.32
2018-01-26T19:51:28.050Z,2.25
2018-01-26T19:53:57.073Z,2.32
2018-01-26T19:56:26.135Z,2.24
2018-01-26T19:58:55.169Z,2.36
2018-01-26T20:01:24.220Z,2.41
2018-01-26T20:09:09.189Z,2.46
2018-01-26T20:11:38.166Z,2.56
2018-01-26T20:14:13.955Z,2.40
2018-01-26T20:16:43.507Z,2.43
2018-01-26T20:21:47.802Z,2.31
2018-01-26T20:24:22.477Z,2.14
2018-01-26T20:26:51.495Z,2.22
2018-01-26T20:29:20.544Z,2.12
2018-01-26T20:31:49.577Z,2.24
2018-01-26T20:34:18.625Z,2.38
2018-01-26T20:36:47.670Z,2.23
2018-01-26T20:39:16.714Z,2.31
2018-01-26T20:41:45.743Z,2.17
2018-01-26T20:44:14.789Z,2.21
2018-01-26T20:46:43.874Z,2.27
2018-01-26T20:49:12.901Z,2.13
2018-01-26T20:51:41.972Z,2.23
2018-01-26T20:54:10.998Z,2.17
2018-01-26T20:56:40.042Z,2.10
2018-01-26T20:59:09.081Z,2.18
2018-01-26T21:01:38.131Z,2.09
2018-01-26T21:04:07.191Z,2.19
2018-01-26T21:06:40.159Z,2.20
2018-01-26T21:09:09.201Z,2.40
2018-01-26T21:11:38.237Z,2.42
2018-01-26T21:14:07.292Z,2.62
2018-01-26T21:16:36.346Z,2.68
2018-01-26T21:19:05.393Z,2.74
2018-01-26T21:21:34.432Z,2.97
2018-01-26T21:24:03.469Z,3.09
2018-01-26T21:26:32.530Z,3.04
2018-01-26T21:29:01.626Z,3.04
2018-01-26T21:34:06.909Z,3.12
2018-01-26T21:36:35.975Z,3.21
2018-01-26T21:41:40.765Z,3.27
2018-01-26T21:44:09.802Z,3.23
2018-01-26T21:46:38.845Z,3.15
2018-01-26T21:49:07.885Z,3.30
2018-01-26T21:51:36.930Z,3.23
2018-01-26T21:56:41.204Z,3.40
2018-01-26T21:59:10.278Z,3.32
2018-01-26T22:01:39.327Z,3.46
2018-01-26T22:04:08.373Z,3.45
2018-01-26T22:09:15.081Z,3.54
2018-01-26T22:11:44.123Z,3.74
2018-01-26T22:14:13.192Z,3.64
2018-01-26T22:16:42.242Z,3.56
2018-01-26T22:19:11.296Z,3.67
2018-01-26T22:21:40.329Z,3.59
2018-01-26T22:24:09.370Z,3.68
2018-01-26T22:26:38.430Z,3.85
2018-01-26T22:29:07.484Z,3.85
2018-01-26T22:31:36.522Z,3.91
2018-01-26T22:34:05.549Z,3.87
2018-01-26T22:36:34.605Z,3.99
2018-01-26T22:39:03.639Z,4.03
2018-01-26T22:41:32.693Z,3.97
2018-01-26T22:44:01.726Z,4.00
2018-01-26T22:46:30.778Z,4.06
2018-01-26T22:48:59.823Z,4.08
2018-01-26T22:51:28.858Z,4.10
2018-01-26T22:53:57.901Z,4.28
2018-01-26T22:56:26.951Z,4.18
2018-01-26T22:58:56.001Z,4.09
2018-01-26T23:01:25.045Z,4.19
2018-01-26T23:03:54.095Z,4.15
2018-01-26T23:06:23.129Z,4.17
2018-01-26T23:08:52.181Z,4.23
2018-01-26T23:11:21.234Z,4.27
2018-01-26T23:13:50.285Z,4.29
2018-01-26T23:16:22.088Z,4.28
2018-01-26T23:18:53.823Z,4.39
2018-01-26T23:24:03.764Z,4.40
2018-01-26T23:26:36.031Z,4.37
2018-01-26T23:29:07.600Z,4.43
2018-01-26T23:31:39.287Z,4.50
2018-01-26T23:34:11.380Z,4.54
2018-01-26T23:39:18.977Z,4.55
2018-01-26T23:41:50.699Z,4.52
2018-01-26T23:44:22.218Z,4.55
2018-01-26T23:46:55.795Z,4.63
2018-01-26T23:49:27.426Z,4.67
2018-01-26T23:52:01.760Z,4.71
2018-01-26T23:57:08.224Z,4.87
